createdAt,value
2022-12-31T00:02:36.932Z,31.05
2022-12-31T00:05:40.015Z,33.80
2022-12-31T00:08:43.546Z,33.22
2022-12-31T00:11:46.865Z,37.85
2022-12-31T00:14:49.698Z,34.10
2022-12-31T00:17:52.667Z,33.47
2022-12-31T00:20:57.814Z,33.53
2022-12-31T00:24:01.339Z,31.77
2022-12-31T00:27:04.177Z,32.17
2022-12-31T00:30:07.783Z,38.23
2022-12-31T00:33:10.614Z,34.42
2022-12-31T00:36:22.356Z,36.10
2022-12-31T00:39:25.173Z,35.00
2022-12-31T00:42:28.084Z,29.90
2022-12-31T00:45:30.993Z,34.60
2022-12-31T00:48:34.921Z,33.22
2022-12-31T00:51:37.915Z,32.35
2022-12-31T00:54:40.768Z,30.88
2022-12-31T00:57:43.695Z,30.83
2022-12-31T01:00:46.546Z,34.07
2022-12-31T01:03:51.343Z,30.98
2022-12-31T01:06:54.496Z,29.73
2022-12-31T01:09:57.341Z,30.98
2022-12-31T01:13:00.546Z,28.75
2022-12-31T01:16:12.342Z,26.73
2022-12-31T01:19:24.629Z,29.05
2022-12-31T01:22:27.799Z,28.12
2022-12-31T01:25:30.676Z,30.08
2022-12-31T01:28:34.059Z,26.55
2022-12-31T01:31:44.000Z,55.87
2022-12-31T01:34:47.890Z,49.10
2022-12-31T01:37:50.945Z,33.70
2022-12-31T01:40:54.094Z,32.67
2022-12-31T01:44:00.256Z,39.08
2022-12-31T01:47:04.592Z,45.20
2022-12-31T01:50:15.279Z,35.28
2022-12-31T01:53:18.713Z,37.00
2022-12-31T01:56:22.794Z,40.92
2022-12-31T01:59:27.590Z,36.20
2022-12-31T02:02:30.590Z,46.17
2022-12-31T02:05:41.111Z,52.95
2022-12-31T02:08:44.577Z,44.97
2022-12-31T02:11:48.488Z,49.60
2022-12-31T02:14:52.987Z,46.03
2022-12-31T02:18:05.322Z,47.77
2022-12-31T02:21:13.739Z,44.03
2022-12-31T02:24:39.609Z,47.45
2022-12-31T02:28:20.966Z,42.47
2022-12-31T02:31:36.446Z,46.55
2022-12-31T02:34:47.122Z,45.33
2022-12-31T02:37:54.151Z,50.12
2022-12-31T02:40:57.891Z,48.05
2022-12-31T02:44:00.996Z,49.95
2022-12-31T02:47:13.635Z,52.55
2022-12-31T02:50:55.785Z,48.53
2022-12-31T02:54:08.024Z,48.53
2022-12-31T02:57:13.721Z,46.53
2022-12-31T03:00:36.380Z,52.08
2022-12-31T03:03:39.888Z,51.90
2022-12-31T03:06:43.340Z,57.40
2022-12-31T03:09:46.433Z,48.42
2022-12-31T03:12:49.786Z,42.25
2022-12-31T03:15:52.852Z,50.92
2022-12-31T03:19:14.613Z,47.53
2022-12-31T03:22:29.408Z,39.47
2022-12-31T03:25:35.752Z,41.37
2022-12-31T03:28:40.730Z,43.03
2022-12-31T03:31:43.615Z,51.78
2022-12-31T03:34:46.530Z,54.53
2022-12-31T03:37:52.348Z,43.60
2022-12-31T03:40:55.544Z,51.42
2022-12-31T03:43:58.320Z,42.22
2022-12-31T03:47:01.080Z,43.22
2022-12-31T03:50:05.990Z,39.42
2022-12-31T03:53:08.912Z,40.83
2022-12-31T03:56:11.720Z,41.88
2022-12-31T03:59:14.788Z,45.08
2022-12-31T04:02:18.557Z,50.97
2022-12-31T04:05:27.864Z,47.15
2022-12-31T04:08:30.669Z,44.83
2022-12-31T04:11:33.552Z,45.38
2022-12-31T04:14:36.525Z,42.40
2022-12-31T04:17:39.390Z,45.97
2022-12-31T04:20:42.389Z,43.63
2022-12-31T04:23:47.460Z,42.67
2022-12-31T04:26:50.657Z,48.72
2022-12-31T04:29:53.507Z,51.45
2022-12-31T04:32:56.288Z,49.25
2022-12-31T04:36:03.209Z,53.87
2022-12-31T04:39:06.665Z,56.00
2022-12-31T04:42:09.648Z,53.28
2022-12-31T04:45:12.528Z,54.40
2022-12-31T04:48:18.229Z,69.85
2022-12-31T04:51:22.037Z,65.75
2022-12-31T04:54:24.912Z,63.47
2022-12-31T04:57:27.843Z,55.20
2022-12-31T05:00:30.695Z,50.90
2022-12-31T05:03:33.863Z,86.78
2022-12-31T05:06:36.981Z,75.07
2022-12-31T05:09:39.831Z,73.23
2022-12-31T05:12:42.627Z,71.68
2022-12-31T05:15:48.910Z,60.97
2022-12-31T05:18:51.871Z,59.38
2022-12-31T05:22:13.200Z,60.70
2022-12-31T05:25:16.325Z,54.17
2022-12-31T05:28:22.695Z,51.70
2022-12-31T05:31:25.479Z,56.30
2022-12-31T05:34:28.436Z,51.25
2022-12-31T05:37:31.959Z,51.67
2022-12-31T05:40:34.850Z,56.73
2022-12-31T05:43:37.699Z,51.78
2022-12-31T05:46:40.629Z,53.53
2022-12-31T05:49:43.674Z,46.53
2022-12-31T05:52:49.782Z,55.95
2022-12-31T05:55:52.794Z,49.97
2022-12-31T05:58:55.656Z,52.40
2022-12-31T06:01:58.740Z,67.22
2022-12-31T06:05:01.589Z,58.70
2022-12-31T06:08:04.651Z,49.83
2022-12-31T06:11:07.494Z,40.77
2022-12-31T06:14:10.493Z,47.45
2022-12-31T06:17:13.514Z,43.97
2022-12-31T06:20:16.561Z,45.95
2022-12-31T06:23:19.614Z,45.20
2022-12-31T06:26:22.516Z,42.17
2022-12-31T06:29:25.562Z,48.70
2022-12-31T06:32:28.474Z,52.55
2022-12-31T06:35:31.299Z,45.30
2022-12-31T06:38:38.781Z,45.08
2022-12-31T06:41:41.710Z,46.60
2022-12-31T06:44:44.574Z,44.15
2022-12-31T06:47:49.648Z,53.90
2022-12-31T06:50:52.602Z,44.80
2022-12-31T06:53:55.585Z,41.95
2022-12-31T06:57:01.868Z,47.17
2022-12-31T07:00:05.663Z,49.13
2022-12-31T07:03:14.517Z,51.88
2022-12-31T07:06:23.471Z,56.37
2022-12-31T07:10:04.053Z,60.45
2022-12-31T07:13:31.906Z,79.67
2022-12-31T07:16:57.417Z,64.20
2022-12-31T07:20:10.628Z,198.60
2022-12-31T07:23:13.780Z,116.10
2022-12-31T07:26:23.160Z,76.87
2022-12-31T07:29:47.920Z,67.73
2022-12-31T07:33:00.182Z,64.40
2022-12-31T07:36:12.993Z,97.45
2022-12-31T07:39:27.640Z,95.30
2022-12-31T07:43:03.122Z,76.32
2022-12-31T07:46:32.547Z,73.03
2022-12-31T07:49:38.025Z,83.07
2022-12-31T07:52:41.235Z,81.97
2022-12-31T07:55:44.278Z,79.85
2022-12-31T07:59:44.621Z,73.90
2022-12-31T08:02:50.548Z,70.60
2022-12-31T08:06:11.753Z,76.10
2022-12-31T08:09:53.119Z,74.85
2022-12-31T08:13:04.529Z,90.65
2022-12-31T08:16:11.580Z,124.80
2022-12-31T08:19:25.039Z,94.47
2022-12-31T08:22:59.969Z,90.03
2022-12-31T08:26:11.891Z,74.28
2022-12-31T08:29:27.488Z,78.12
2022-12-31T08:32:44.182Z,73.75
2022-12-31T08:35:58.381Z,77.87
2022-12-31T08:39:38.716Z,76.37
2022-12-31T08:42:48.287Z,72.97
2022-12-31T08:45:54.683Z,95.90
2022-12-31T08:48:57.944Z,77.28
2022-12-31T08:52:02.219Z,66.97
2022-12-31T08:55:05.767Z,63.95
2022-12-31T08:58:27.325Z,60.50
2022-12-31T09:01:37.288Z,62.55
2022-12-31T09:08:17.246Z,65.03
2022-12-31T09:11:48.746Z,58.97
2022-12-31T09:14:58.598Z,58.13
2022-12-31T09:18:01.592Z,64.18
2022-12-31T09:21:04.634Z,67.82
2022-12-31T09:24:09.687Z,69.87
2022-12-31T09:27:25.606Z,60.90
2022-12-31T09:30:37.903Z,56.22
2022-12-31T09:33:59.206Z,55.05
2022-12-31T09:37:15.676Z,59.05
2022-12-31T09:40:50.739Z,64.87
2022-12-31T09:44:24.654Z,52.65
2022-12-31T09:47:46.607Z,44.50
2022-12-31T09:51:11.339Z,51.78
2022-12-31T09:54:27.615Z,47.60
2022-12-31T09:57:40.992Z,41.40
2022-12-31T10:00:53.019Z,41.10
2022-12-31T10:04:18.008Z,49.85
2022-12-31T10:07:29.923Z,46.65
2022-12-31T10:10:51.637Z,40.20
2022-12-31T10:14:19.093Z,41.43
2022-12-31T10:17:40.208Z,44.25
2022-12-31T10:21:07.051Z,46.47
2022-12-31T10:24:43.154Z,41.30
2022-12-31T10:28:31.130Z,38.08
2022-12-31T10:32:14.069Z,35.20
2022-12-31T10:35:29.773Z,34.30
2022-12-31T10:38:55.729Z,33.92
2022-12-31T10:42:24.015Z,33.65
2022-12-31T10:46:05.505Z,38.42
2022-12-31T10:49:45.083Z,38.03
2022-12-31T10:52:54.034Z,36.65
2022-12-31T10:56:11.955Z,37.40
2022-12-31T10:59:43.148Z,33.10
2022-12-31T11:03:04.783Z,31.25
2022-12-31T11:06:36.835Z,32.33
2022-12-31T11:10:14.897Z,29.73
2022-12-31T11:13:29.697Z,31.20
2022-12-31T11:16:41.439Z,30.88
2022-12-31T11:19:59.304Z,30.70
2022-12-31T11:23:04.922Z,29.57
2022-12-31T11:26:19.867Z,30.98
2022-12-31T11:30:15.193Z,30.00
2022-12-31T11:33:36.872Z,43.15
2022-12-31T11:36:58.138Z,33.35
2022-12-31T11:40:31.770Z,30.00
2022-12-31T11:43:39.351Z,30.92
2022-12-31T11:47:02.299Z,28.67
2022-12-31T11:50:59.829Z,141.68
2022-12-31T11:54:25.373Z,37.83
2022-12-31T11:57:34.468Z,33.07
2022-12-31T12:00:38.681Z,31.73
2022-12-31T12:03:43.945Z,31.30
2022-12-31T12:06:46.727Z,29.20
2022-12-31T12:09:50.696Z,32.38
2022-12-31T12:12:55.684Z,34.13
2022-12-31T12:16:00.898Z,31.27
2022-12-31T12:19:08.566Z,30.77
2022-12-31T12:22:13.852Z,28.30
2022-12-31T12:25:22.693Z,31.40
2022-12-31T12:28:28.776Z,34.07
2022-12-31T12:31:34.384Z,31.92
2022-12-31T12:34:43.116Z,32.83
2022-12-31T12:37:59.543Z,29.70
2022-12-31T12:41:05.755Z,31.10
2022-12-31T12:44:14.353Z,37.23
2022-12-31T12:47:18.712Z,29.75
2022-12-31T12:50:25.215Z,29.65
2022-12-31T12:53:48.048Z,33.33
2022-12-31T12:57:16.177Z,35.05
2022-12-31T13:00:21.587Z,32.67
2022-12-31T13:04:14.672Z,31.30
2022-12-31T13:07:40.622Z,29.35
2022-12-31T13:10:58.394Z,28.92
2022-12-31T13:14:10.427Z,31.27
2022-12-31T13:17:32.840Z,27.50
2022-12-31T13:20:38.819Z,32.53
2022-12-31T13:23:52.160Z,32.75
2022-12-31T13:27:15.608Z,25.83
2022-12-31T13:30:45.874Z,27.45
2022-12-31T13:33:59.806Z,30.97
2022-12-31T13:37:18.586Z,34.45
2022-12-31T13:40:26.174Z,34.63
2022-12-31T13:43:35.550Z,33.15
2022-12-31T13:46:45.678Z,31.25
2022-12-31T13:50:14.305Z,29.30
2022-12-31T13:53:23.407Z,26.48
2022-12-31T13:56:34.646Z,30.12
2022-12-31T13:59:41.461Z,28.50
2022-12-31T14:02:53.562Z,19.55
2022-12-31T14:06:04.260Z,22.10
2022-12-31T14:09:08.310Z,26.25
2022-12-31T14:12:11.099Z,39.88
2022-12-31T14:15:37.165Z,44.70
2022-12-31T14:18:55.559Z,32.20
2022-12-31T14:22:06.564Z,24.10
2022-12-31T14:25:36.408Z,18.73
2022-12-31T14:28:47.595Z,14.25
2022-12-31T14:31:52.026Z,12.15
2022-12-31T14:35:30.094Z,11.10
2022-12-31T14:38:57.889Z,10.77
2022-12-31T14:42:38.500Z,13.45
2022-12-31T14:45:54.642Z,12.30
2022-12-31T14:49:01.613Z,11.25
2022-12-31T14:52:48.114Z,15.40
2022-12-31T14:56:03.041Z,10.70
2022-12-31T14:59:29.005Z,9.18
2022-12-31T15:02:34.713Z,9.90
2022-12-31T15:05:39.083Z,8.82
2022-12-31T15:09:16.093Z,12.13
2022-12-31T15:12:45.388Z,9.13
2022-12-31T15:16:39.423Z,90.75
2022-12-31T15:20:22.574Z,84.68
2022-12-31T15:23:39.924Z,87.50
2022-12-31T15:26:57.506Z,28.87
2022-12-31T15:30:00.707Z,11.77
2022-12-31T15:33:08.721Z,10.90
2022-12-31T15:36:40.973Z,20.50
2022-12-31T15:39:44.689Z,12.18
2022-12-31T15:42:52.765Z,11.30
2022-12-31T15:45:56.295Z,11.87
2022-12-31T15:49:10.244Z,13.80
2022-12-31T15:52:40.947Z,14.23
2022-12-31T15:55:47.043Z,13.40
2022-12-31T15:58:52.006Z,11.43
2022-12-31T16:01:58.297Z,13.87
2022-12-31T16:05:01.582Z,11.30
2022-12-31T16:08:04.751Z,13.32
2022-12-31T16:11:11.423Z,11.65
2022-12-31T16:14:29.697Z,11.23
2022-12-31T16:17:37.146Z,11.50
2022-12-31T16:20:44.965Z,14.95
2022-12-31T16:23:53.019Z,13.38
2022-12-31T16:26:59.217Z,10.88
2022-12-31T16:30:07.340Z,12.68
2022-12-31T16:33:15.175Z,11.67
2022-12-31T16:36:24.033Z,13.93
2022-12-31T16:39:32.232Z,11.55
2022-12-31T16:42:44.142Z,10.73
2022-12-31T16:45:47.381Z,12.23
2022-12-31T16:48:56.225Z,12.23
2022-12-31T16:52:25.417Z,10.48
2022-12-31T16:55:30.222Z,12.20
2022-12-31T16:58:35.410Z,10.43
2022-12-31T17:01:39.062Z,12.50
2022-12-31T17:04:55.397Z,10.07
2022-12-31T17:08:19.066Z,11.12
2022-12-31T17:11:31.055Z,12.27
2022-12-31T17:14:49.122Z,13.35
2022-12-31T17:17:58.835Z,12.48
2022-12-31T17:21:11.222Z,13.57
2022-12-31T17:24:14.236Z,13.95
2022-12-31T17:27:17.164Z,15.63
2022-12-31T17:30:40.545Z,12.10
2022-12-31T17:33:43.496Z,13.75
2022-12-31T17:36:59.769Z,12.57
2022-12-31T17:40:49.958Z,27.83
2022-12-31T17:43:33.068Z,13.23
2022-12-31T17:46:38.955Z,11.73
2022-12-31T17:49:45.904Z,11.30
2022-12-31T17:52:48.972Z,11.23
2022-12-31T17:55:56.313Z,11.90
2022-12-31T17:59:00.696Z,11.43
2022-12-31T18:02:04.333Z,11.40
2022-12-31T18:05:18.883Z,12.85
2022-12-31T18:08:21.664Z,10.97
2022-12-31T18:11:25.113Z,11.68
2022-12-31T18:14:27.798Z,10.95
2022-12-31T18:17:30.609Z,14.23
2022-12-31T18:20:33.921Z,10.50
2022-12-31T18:23:47.786Z,11.03
2022-12-31T18:26:54.066Z,12.18
2022-12-31T18:30:04.091Z,10.52
2022-12-31T18:33:07.771Z,11.75
2022-12-31T18:36:13.214Z,11.23
2022-12-31T18:39:15.967Z,10.80
2022-12-31T18:42:19.552Z,11.00
2022-12-31T18:45:22.230Z,10.45
2022-12-31T18:48:25.280Z,10.27
2022-12-31T18:51:31.994Z,10.40
2022-12-31T18:54:35.254Z,10.67
2022-12-31T18:57:41.118Z,10.90
2022-12-31T19:00:44.815Z,10.68
2022-12-31T19:03:48.014Z,10.57
2022-12-31T19:06:51.096Z,11.85
2022-12-31T19:09:58.515Z,8.83
2022-12-31T19:13:04.608Z,12.80
2022-12-31T19:16:08.029Z,10.70
2022-12-31T19:19:11.177Z,10.30
2022-12-31T19:22:15.720Z,9.10
2022-12-31T19:25:24.556Z,9.53
2022-12-31T19:28:28.110Z,11.48
2022-12-31T19:31:31.303Z,10.00
2022-12-31T19:34:34.127Z,8.85
2022-12-31T19:37:36.931Z,9.68
2022-12-31T19:40:40.852Z,9.70
2022-12-31T19:43:44.210Z,8.13
2022-12-31T19:46:49.447Z,9.65
2022-12-31T19:49:55.275Z,10.88
2022-12-31T19:52:59.445Z,10.38
2022-12-31T19:56:05.875Z,8.97
2022-12-31T19:59:10.132Z,10.07
2022-12-31T20:02:13.503Z,9.65
2022-12-31T20:05:17.198Z,7.90
2022-12-31T20:08:23.076Z,8.50
2022-12-31T20:11:26.100Z,8.83
2022-12-31T20:14:29.001Z,8.93
2022-12-31T20:17:35.815Z,8.75
2022-12-31T20:20:38.688Z,8.85
2022-12-31T20:23:41.804Z,8.70
2022-12-31T20:26:44.672Z,9.40
2022-12-31T20:29:47.407Z,7.62
2022-12-31T20:32:52.857Z,8.05
2022-12-31T20:35:55.632Z,8.90
2022-12-31T20:38:58.969Z,11.18
2022-12-31T20:42:01.767Z,8.70
2022-12-31T20:45:05.016Z,8.15
2022-12-31T20:48:07.752Z,10.30
2022-12-31T20:51:11.436Z,8.27
2022-12-31T20:54:14.278Z,7.65
2022-12-31T20:57:17.090Z,7.53
2022-12-31T21:00:20.949Z,8.90
2022-12-31T21:04:03.174Z,8.57
2022-12-31T21:06:49.591Z,8.65
2022-12-31T21:09:52.584Z,7.75
2022-12-31T21:12:55.602Z,8.57
2022-12-31T21:16:01.475Z,9.05
2022-12-31T21:19:04.444Z,8.57
2022-12-31T21:22:07.332Z,8.00
2022-12-31T21:25:11.030Z,8.25
2022-12-31T21:28:14.116Z,10.37
2022-12-31T21:31:16.978Z,8.40
2022-12-31T21:34:19.814Z,8.27
2022-12-31T21:37:22.661Z,8.63
2022-12-31T21:40:25.600Z,8.75
2022-12-31T21:43:28.683Z,9.00
2022-12-31T21:46:31.820Z,9.25
2022-12-31T21:49:34.724Z,9.15
2022-12-31T21:52:38.235Z,7.47
2022-12-31T21:56:00.070Z,8.10
2022-12-31T21:59:21.395Z,7.83
2022-12-31T22:02:42.717Z,7.78
2022-12-31T22:06:11.198Z,8.00
2022-12-31T22:09:14.753Z,8.13
2022-12-31T22:12:17.576Z,8.48
2022-12-31T22:15:20.822Z,7.43
2022-12-31T22:18:24.013Z,8.90
2022-12-31T22:21:27.849Z,7.50
2022-12-31T22:24:33.849Z,8.70
2022-12-31T22:27:36.884Z,8.35
2022-12-31T22:30:39.761Z,7.67
2022-12-31T22:33:46.309Z,7.25
2022-12-31T22:36:49.134Z,7.80
2022-12-31T22:39:52.652Z,8.85
2022-12-31T22:42:55.770Z,9.15
2022-12-31T22:45:58.667Z,8.97
2022-12-31T22:49:03.217Z,8.52
2022-12-31T22:52:08.816Z,7.60
2022-12-31T22:55:14.629Z,8.18
2022-12-31T22:58:19.979Z,8.65
2022-12-31T23:01:25.034Z,7.67
2022-12-31T23:04:27.868Z,8.15
2022-12-31T23:07:33.676Z,9.18
2022-12-31T23:10:58.047Z,12.77
2022-12-31T23:14:20.044Z,14.52
2022-12-31T23:17:43.851Z,13.37
2022-12-31T23:21:05.108Z,22.65
2022-12-31T23:24:13.637Z,17.35
2022-12-31T23:27:24.853Z,18.95
2022-12-31T23:30:27.784Z,14.75
2022-12-31T23:33:30.694Z,10.33
2022-12-31T23:36:33.481Z,9.25
2022-12-31T23:39:36.348Z,9.10
2022-12-31T23:42:39.273Z,9.60
2022-12-31T23:45:42.141Z,8.40
2022-12-31T23:48:45.003Z,9.13
2022-12-31T23:51:48.634Z,8.20
2022-12-31T23:54:51.534Z,8.07
2022-12-31T23:57:57.650Z,8.38
